Time;durP1;ratioP1;P1;durP2;ratioP2;P2;SDS_P1;SDS_P2;PMS_P1;PMS_P2;Temp;Humidity;BMP_temperature;BMP_pressure;BME280_temperature;BME280_humidity;BME280_pressure;Samples;Min_cycle;Max_cycle;Signal;HPM_P1;HPM_P2
2021/01/31 00:00:29;;;;;;;12.00;8.77;;;;;;;;;;5080085;28;20039;-84
2021/01/31 00:02:55;;;;;;;12.05;8.48;;;;;;;;;;5080704;28;20032;-83
2021/01/31 00:05:22;;;;;;;11.45;8.40;;;;;;;;;;5098108;28;20024;-84
2021/01/31 00:07:48;;;;;;;10.27;7.30;;;;;;;;;;5080031;28;20055;-84
2021/01/31 00:10:16;;;;;;;10.02;7.50;;;;;;;;;;5080072;28;20019;-86
2021/01/31 00:12:42;;;;;;;11.13;7.97;;;;;;;;;;5084127;28;20153;-85
2021/01/31 00:15:10;;;;;;;10.65;7.65;;;;;;;;;;5096790;28;20032;-85
2021/01/31 00:17:36;;;;;;;9.27;7.43;;;;;;;;;;5047985;28;20049;-84
2021/01/31 00:20:04;;;;;;;10.10;8.00;;;;;;;;;;5083530;28;20455;-83
2021/01/31 00:22:30;;;;;;;12.18;8.25;;;;;;;;;;5015037;28;20041;-84
2021/01/31 00:24:56;;;;;;;10.30;7.97;;;;;;;;;;5015076;28;20030;-84
2021/01/31 00:27:23;;;;;;;8.50;6.78;;;;;;;;;;5082785;28;20034;-86
2021/01/31 00:29:49;;;;;;;12.82;7.20;;;;;;;;;;5014856;28;20065;-85
2021/01/31 00:32:20;;;;;;;9.93;7.30;;;;;;;;;;5014632;28;20124;-84
2021/01/31 00:34:47;;;;;;;10.05;7.13;;;;;;;;;;5082902;28;20353;-86
2021/01/31 00:37:14;;;;;;;11.10;9.27;;;;;;;;;;5082761;28;20034;-85
2021/01/31 00:39:41;;;;;;;9.93;7.57;;;;;;;;;;5014497;28;20033;-84
2021/01/31 00:42:07;;;;;;;9.27;7.43;;;;;;;;;;5012728;28;20026;-84
2021/01/31 00:44:33;;;;;;;9.60;7.28;;;;;;;;;;5053548;28;20116;-86
2021/01/31 00:46:59;;;;;;;10.07;7.97;;;;;;;;;;5080443;28;20039;-83
2021/01/31 00:49:25;;;;;;;10.30;7.07;;;;;;;;;;5079567;28;20118;-84
2021/01/31 00:51:51;;;;;;;10.27;7.68;;;;;;;;;;5096857;28;20043;-84
2021/01/31 00:54:17;;;;;;;10.45;8.00;;;;;;;;;;5078870;28;20073;-84
2021/01/31 00:56:43;;;;;;;11.35;8.18;;;;;;;;;;5097761;28;20055;-85
2021/01/31 00:59:09;;;;;;;10.80;8.13;;;;;;;;;;5079735;28;20032;-86
2021/01/31 01:01:35;;;;;;;9.65;7.60;;;;;;;;;;5080180;28;20032;-84
2021/01/31 01:04:01;;;;;;;7.57;6.78;;;;;;;;;;5097627;28;20042;-86
2021/01/31 01:06:27;;;;;;;10.80;8.20;;;;;;;;;;5097978;28;20122;-85
2021/01/31 01:08:53;;;;;;;10.40;7.32;;;;;;;;;;5079726;28;20024;-84
2021/01/31 01:11:20;;;;;;;9.85;7.72;;;;;;;;;;5096804;28;20037;-84
2021/01/31 01:13:46;;;;;;;10.13;7.13;;;;;;;;;;5079531;28;20024;-86
2021/01/31 01:16:12;;;;;;;9.88;8.13;;;;;;;;;;5079099;28;20312;-85
2021/01/31 01:18:39;;;;;;;9.70;7.38;;;;;;;;;;5097562;28;20038;-86
2021/01/31 01:21:05;;;;;;;9.02;6.88;;;;;;;;;;5097054;28;20043;-87
2021/01/31 01:23:31;;;;;;;10.68;7.55;;;;;;;;;;5079350;28;20035;-85
2021/01/31 01:25:57;;;;;;;11.23;8.48;;;;;;;;;;5079217;28;20028;-85
2021/01/31 01:28:23;;;;;;;10.07;7.25;;;;;;;;;;5079685;28;20024;-85
2021/01/31 01:30:50;;;;;;;10.20;7.82;;;;;;;;;;5096784;28;20020;-85
2021/01/31 01:33:16;;;;;;;9.07;6.80;;;;;;;;;;5074803;28;20127;-85
2021/01/31 01:35:42;;;;;;;9.60;7.57;;;;;;;;;;5066147;28;20037;-85
2021/01/31 01:38:08;;;;;;;8.80;7.50;;;;;;;;;;5035088;28;20103;-85
2021/01/31 01:40:38;;;;;;;10.30;7.88;;;;;;;;;;5094868;28;20043;-84
2021/01/31 01:43:06;;;;;;;10.57;8.23;;;;;;;;;;5079182;28;20028;-86
2021/01/31 01:45:33;;;;;;;10.02;7.85;;;;;;;;;;5096108;28;20050;-86
2021/01/31 01:48:06;;;;;;;10.32;8.10;;;;;;;;;;5076399;28;20027;-86
2021/01/31 01:50:35;;;;;;;9.38;7.75;;;;;;;;;;5024010;28;20026;-85
2021/01/31 01:53:01;;;;;;;10.13;8.32;;;;;;;;;;5080180;28;20390;-83
2021/01/31 01:55:30;;;;;;;11.20;7.93;;;;;;;;;;5078939;28;20037;-85
2021/01/31 01:58:08;;;;;;;11.85;7.90;;;;;;;;;;5089218;28;20032;-85
2021/01/31 02:00:34;;;;;;;10.45;8.40;;;;;;;;;;5066900;28;20042;-87
2021/01/31 02:03:00;;;;;;;9.70;7.65;;;;;;;;;;5004969;28;20124;-84
2021/01/31 02:05:27;;;;;;;12.85;8.25;;;;;;;;;;5061902;28;20081;-84
2021/01/31 02:07:53;;;;;;;10.35;8.00;;;;;;;;;;5060905;28;20345;-85
2021/01/31 02:10:20;;;;;;;11.27;8.60;;;;;;;;;;5060875;28;20070;-85
2021/01/31 02:12:46;;;;;;;9.73;7.20;;;;;;;;;;5061823;28;20414;-86
2021/01/31 02:15:14;;;;;;;12.52;7.32;;;;;;;;;;5076147;28;20028;-84
2021/01/31 02:18:01;;;;;;;11.35;8.32;;;;;;;;;;5020357;28;20038;-84
2021/01/31 02:20:27;;;;;;;12.05;8.82;;;;;;;;;;5081438;28;20079;-85
2021/01/31 02:23:13;;;;;;;11.73;9.02;;;;;;;;;;5081349;28;20038;-85
2021/01/31 02:25:55;;;;;;;11.48;8.80;;;;;;;;;;5081789;28;20041;-85
2021/01/31 02:28:28;;;;;;;11.00;8.35;;;;;;;;;;5081416;28;20048;-85
2021/01/31 02:31:12;;;;;;;12.48;8.98;;;;;;;;;;5081689;28;20073;-84
2021/01/31 02:33:45;;;;;;;11.68;8.18;;;;;;;;;;5081479;28;20021;-86
2021/01/31 02:36:30;;;;;;;10.73;7.68;;;;;;;;;;5081260;28;20061;-83
2021/01/31 02:39:09;;;;;;;10.93;8.35;;;;;;;;;;5084543;28;20081;-84
2021/01/31 02:41:38;;;;;;;13.45;8.05;;;;;;;;;;5084868;28;20069;-86
2021/01/31 02:44:06;;;;;;;9.80;7.85;;;;;;;;;;5084851;28;20033;-83
2021/01/31 02:46:34;;;;;;;11.57;8.93;;;;;;;;;;5016026;28;20125;-85
2021/01/31 02:49:05;;;;;;;12.37;9.07;;;;;;;;;;5084406;28;20029;-85
2021/01/31 02:51:35;;;;;;;11.45;7.93;;;;;;;;;;5016112;28;20025;-82
2021/01/31 02:54:05;;;;;;;11.23;8.82;;;;;;;;;;5083870;28;20038;-84
2021/01/31 02:56:35;;;;;;;10.23;7.43;;;;;;;;;;5084902;28;20030;-87
2021/01/31 02:59:05;;;;;;;10.35;7.57;;;;;;;;;;5084366;28;20038;-87
2021/01/31 03:01:31;;;;;;;;;;;;;;;;;;5039093;28;20097;-87
2021/01/31 03:04:02;;;;;;;9.52;7.57;;;;;;;;;;5081978;28;20303;-86
2021/01/31 03:06:32;;;;;;;11.35;8.07;;;;;;;;;;5081987;28;20080;-87
2021/01/31 03:09:04;;;;;;;10.95;8.23;;;;;;;;;;5082523;28;20031;-85
2021/01/31 03:11:30;;;;;;;10.30;7.97;;;;;;;;;;5100648;28;20089;-85
2021/01/31 03:14:02;;;;;;;10.50;8.73;;;;;;;;;;5101393;28;20031;-84
2021/01/31 03:16:31;;;;;;;10.13;8.00;;;;;;;;;;5083185;28;20035;-86
2021/01/31 03:19:01;;;;;;;8.35;7.03;;;;;;;;;;5082276;28;20046;-84
2021/01/31 03:21:29;;;;;;;11.13;8.95;;;;;;;;;;5082915;28;20047;-83
2021/01/31 03:24:14;;;;;;;10.13;7.93;;;;;;;;;;5101096;28;20050;-85
2021/01/31 03:26:47;;;;;;;9.35;8.00;;;;;;;;;;5082941;28;20089;-85
2021/01/31 03:29:13;;;;;;;11.63;7.43;;;;;;;;;;5082314;28;20024;-84
2021/01/31 03:31:42;;;;;;;11.20;8.32;;;;;;;;;;5081974;28;20032;-86
2021/01/31 03:34:10;;;;;;;12.52;7.95;;;;;;;;;;5082458;28;20047;-84
2021/01/31 03:36:38;;;;;;;9.38;7.55;;;;;;;;;;5083018;28;20035;-85
2021/01/31 03:39:06;;;;;;;10.15;7.38;;;;;;;;;;5100762;28;20139;-86
2021/01/31 03:41:32;;;;;;;10.55;7.88;;;;;;;;;;5083755;28;20024;-84
2021/01/31 03:43:58;;;;;;;10.18;8.30;;;;;;;;;;5083381;28;20117;-85
2021/01/31 03:46:31;;;;;;;11.48;8.18;;;;;;;;;;5082795;28;20020;-85
2021/01/31 03:49:00;;;;;;;10.05;8.00;;;;;;;;;;5100973;28;20052;-83
2021/01/31 03:51:26;;;;;;;;;;;;;;;;;;5087655;28;20034;-85
2021/01/31 03:53:52;;;;;;;10.25;7.20;;;;;;;;;;5092444;28;19912;-85
2021/01/31 03:56:21;;;;;;;12.88;9.07;;;;;;;;;;5090676;28;20028;-84
2021/01/31 03:58:49;;;;;;;11.68;7.78;;;;;;;;;;5101994;28;20043;-84
2021/01/31 04:01:16;;;;;;;10.30;7.97;;;;;;;;;;5082119;28;20032;-85
2021/01/31 04:03:45;;;;;;;10.00;8.07;;;;;;;;;;5103874;28;20027;-84
2021/01/31 04:06:22;;;;;;;11.60;8.10;;;;;;;;;;5104040;28;20042;-85
2021/01/31 04:08:49;;;;;;;10.20;8.35;;;;;;;;;;5086616;28;20070;-84
2021/01/31 04:11:30;;;;;;;10.80;7.70;;;;;;;;;;5086915;28;20051;-87
2021/01/31 04:13:58;;;;;;;11.00;7.75;;;;;;;;;;5082245;28;20319;-85
2021/01/31 04:16:24;;;;;;;11.40;8.38;;;;;;;;;;5098594;28;20122;-84
2021/01/31 04:18:50;;;;;;;12.05;8.48;;;;;;;;;;5097484;28;20078;-84
2021/01/31 04:21:16;;;;;;;9.10;7.50;;;;;;;;;;5079278;28;20038;-85
2021/01/31 04:23:42;;;;;;;10.85;7.88;;;;;;;;;;5097607;28;20031;-84
2021/01/31 04:26:08;;;;;;;10.45;7.88;;;;;;;;;;5097343;28;20081;-84
2021/01/31 04:28:34;;;;;;;10.98;8.32;;;;;;;;;;5079994;28;20047;-87
2021/01/31 04:31:00;;;;;;;9.18;7.05;;;;;;;;;;5079665;28;20024;-86
2021/01/31 04:33:27;;;;;;;10.20;7.18;;;;;;;;;;5079279;28;20028;-84
2021/01/31 04:35:53;;;;;;;12.02;7.75;;;;;;;;;;5097292;28;20044;-86
2021/01/31 04:38:19;;;;;;;10.23;7.72;;;;;;;;;;5079087;28;20046;-84
2021/01/31 04:40:45;;;;;;;9.43;7.57;;;;;;;;;;5079056;28;20024;-85
2021/01/31 04:43:13;;;;;;;11.73;8.20;;;;;;;;;;5079557;28;20332;-83
2021/01/31 04:45:40;;;;;;;10.60;7.82;;;;;;;;;;5097004;28;20028;-86
2021/01/31 04:48:12;;;;;;;10.80;8.13;;;;;;;;;;5081377;28;20023;-86
2021/01/31 04:50:38;;;;;;;11.57;8.35;;;;;;;;;;5079445;28;20031;-86
2021/01/31 04:53:07;;;;;;;10.15;7.95;;;;;;;;;;5079866;28;20023;-86
2021/01/31 04:55:52;;;;;;;9.07;7.32;;;;;;;;;;5098112;28;20028;-84
2021/01/31 04:58:22;;;;;;;10.80;7.88;;;;;;;;;;5075782;28;20451;-86
2021/01/31 05:00:54;;;;;;;9.88;7.28;;;;;;;;;;5077974;28;20059;-87
2021/01/31 05:03:21;;;;;;;11.55;7.80;;;;;;;;;;5079132;28;20032;-86
2021/01/31 05:05:57;;;;;;;9.88;7.32;;;;;;;;;;5096923;28;20020;-84
2021/01/31 05:08:25;;;;;;;9.10;7.25;;;;;;;;;;5096822;28;20035;-86
2021/01/31 05:10:52;;;;;;;11.60;8.68;;;;;;;;;;5078716;28;20042;-86
2021/01/31 05:13:18;;;;;;;10.70;8.18;;;;;;;;;;5079049;28;20043;-87
2021/01/31 05:15:44;;;;;;;12.93;8.07;;;;;;;;;;5079092;28;20024;-85
2021/01/31 05:18:11;;;;;;;10.02;7.60;;;;;;;;;;5078592;28;20081;-84
2021/01/31 05:20:37;;;;;;;10.52;7.65;;;;;;;;;;5078821;28;20023;-87
2021/01/31 05:23:04;;;;;;;10.00;7.70;;;;;;;;;;5096651;28;20031;-85
2021/01/31 05:25:32;;;;;;;10.02;7.63;;;;;;;;;;5079209;28;20020;-84
2021/01/31 05:28:00;;;;;;;9.80;6.82;;;;;;;;;;5078786;28;20020;-85
2021/01/31 05:30:27;;;;;;;10.18;7.80;;;;;;;;;;5078802;28;20028;-84
2021/01/31 05:33:00;;;;;;;11.88;8.38;;;;;;;;;;5078593;28;20089;-86
2021/01/31 05:35:27;;;;;;;11.85;8.52;;;;;;;;;;5093590;28;20084;-86
2021/01/31 05:37:53;;;;;;;9.38;7.15;;;;;;;;;;5078213;28;20039;-87
2021/01/31 05:40:43;;;;;;;9.85;7.10;;;;;;;;;;5077749;28;20028;-86
2021/01/31 05:43:22;;;;;;;12.02;8.30;;;;;;;;;;5068878;28;20040;-87
2021/01/31 05:45:49;;;;;;;9.73;7.22;;;;;;;;;;5078233;28;20077;-87
2021/01/31 05:48:21;;;;;;;9.95;7.45;;;;;;;;;;5074018;28;20119;-87
2021/01/31 05:50:47;;;;;;;9.70;7.72;;;;;;;;;;5077991;28;20036;-86
2021/01/31 05:53:22;;;;;;;13.43;8.55;;;;;;;;;;5077977;28;20036;-83
2021/01/31 05:55:48;;;;;;;11.20;7.65;;;;;;;;;;5078278;28;20078;-87
2021/01/31 05:58:18;;;;;;;9.43;7.65;;;;;;;;;;5078036;28;20036;-84
2021/01/31 06:00:45;;;;;;;11.93;7.72;;;;;;;;;;5077903;28;20039;-84
2021/01/31 06:03:12;;;;;;;10.48;6.85;;;;;;;;;;5078198;28;20032;-86
2021/01/31 06:05:38;;;;;;;12.50;7.88;;;;;;;;;;5064461;28;20029;-86
2021/01/31 06:08:25;;;;;;;10.82;7.50;;;;;;;;;;5061143;28;20045;-85
2021/01/31 06:11:04;;;;;;;9.60;7.78;;;;;;;;;;5059093;28;20030;-85
2021/01/31 06:13:31;;;;;;;10.88;7.20;;;;;;;;;;5070536;28;20028;-84
2021/01/31 06:15:59;;;;;;;10.90;7.63;;;;;;;;;;5099185;28;20111;-87
2021/01/31 06:18:30;;;;;;;11.95;7.88;;;;;;;;;;5081279;28;20081;-87
2021/01/31 06:21:08;;;;;;;11.10;8.10;;;;;;;;;;5098989;28;20115;-87
2021/01/31 06:23:38;;;;;;;11.50;7.88;;;;;;;;;;5080206;28;20052;-86
2021/01/31 06:26:05;;;;;;;10.57;7.45;;;;;;;;;;5080189;28;20039;-86
2021/01/31 06:28:40;;;;;;;10.18;7.50;;;;;;;;;;5080909;28;20123;-87
2021/01/31 06:31:12;;;;;;;11.52;8.00;;;;;;;;;;5080506;28;20024;-86
2021/01/31 06:33:40;;;;;;;11.45;7.63;;;;;;;;;;5095719;28;20031;-87
2021/01/31 06:36:21;;;;;;;11.77;8.43;;;;;;;;;;5080052;28;20063;-85
2021/01/31 06:38:59;;;;;;;10.90;7.93;;;;;;;;;;5096596;28;20113;-85
2021/01/31 06:41:28;;;;;;;10.45;7.80;;;;;;;;;;5079468;28;20027;-87
2021/01/31 06:43:54;;;;;;;;;;;;;;;;;;5090189;28;20056;-86
2021/01/31 06:46:39;;;;;;;10.65;7.75;;;;;;;;;;5097584;28;19961;-84
2021/01/31 06:49:08;;;;;;;9.75;7.50;;;;;;;;;;5077937;28;20071;-86
2021/01/31 06:51:52;;;;;;;15.30;8.88;;;;;;;;;;5080072;28;20028;-84
2021/01/31 06:54:27;;;;;;;11.93;8.48;;;;;;;;;;5080674;28;20036;-85
2021/01/31 06:56:53;;;;;;;11.18;7.45;;;;;;;;;;5079686;28;20067;-84
2021/01/31 06:59:38;;;;;;;10.70;7.70;;;;;;;;;;5078720;28;20043;-86
2021/01/31 07:02:07;;;;;;;10.32;7.40;;;;;;;;;;5077594;28;20023;-86
2021/01/31 07:04:36;;;;;;;9.45;7.50;;;;;;;;;;5098328;28;20107;-87
2021/01/31 07:07:21;;;;;;;10.80;7.93;;;;;;;;;;5092420;28;20074;-84
2021/01/31 07:09:53;;;;;;;10.43;7.65;;;;;;;;;;5082590;28;20021;-83
2021/01/31 07:12:25;;;;;;;11.75;8.00;;;;;;;;;;5096726;28;20126;-83
2021/01/31 07:15:05;;;;;;;11.35;7.38;;;;;;;;;;5076308;28;20046;-84
2021/01/31 07:17:31;;;;;;;11.45;7.82;;;;;;;;;;5080272;28;20347;-86
2021/01/31 07:20:00;;;;;;;12.02;8.27;;;;;;;;;;5077211;28;20031;-86
2021/01/31 07:22:46;;;;;;;10.50;6.93;;;;;;;;;;5063845;28;20079;-87
2021/01/31 07:25:18;;;;;;;11.38;7.70;;;;;;;;;;5051926;28;20291;-85
2021/01/31 07:27:44;;;;;;;10.38;7.57;;;;;;;;;;5081181;28;20120;-84
2021/01/31 07:30:10;;;;;;;10.32;8.40;;;;;;;;;;5096126;28;20324;-84
2021/01/31 07:32:49;;;;;;;10.57;7.85;;;;;;;;;;5078341;28;20445;-86
2021/01/31 07:35:18;;;;;;;12.48;8.32;;;;;;;;;;5081504;28;20066;-85
2021/01/31 07:37:47;;;;;;;10.65;7.50;;;;;;;;;;5089385;28;20106;-86
2021/01/31 07:40:13;;;;;;;;;;;;;;;;;;5081658;28;20036;-86
2021/01/31 07:42:41;;;;;;;9.60;6.68;;;;;;;;;;5077003;28;19912;-86
2021/01/31 07:45:12;;;;;;;12.35;8.27;;;;;;;;;;5083755;28;20028;-84
2021/01/31 07:47:39;;;;;;;10.45;7.90;;;;;;;;;;5092985;28;20028;-84
2021/01/31 07:50:05;;;;;;;8.73;6.60;;;;;;;;;;5060767;28;20036;-83
2021/01/31 07:52:49;;;;;;;12.07;8.23;;;;;;;;;;5080149;28;20032;-87
2021/01/31 07:55:17;;;;;;;10.98;7.68;;;;;;;;;;5076466;28;20035;-84
2021/01/31 07:57:56;;;;;;;11.68;7.80;;;;;;;;;;5076053;28;20070;-86
2021/01/31 08:00:32;;;;;;;9.80;7.03;;;;;;;;;;5049160;28;20349;-84
2021/01/31 08:02:59;;;;;;;10.27;7.88;;;;;;;;;;5068901;28;20067;-84
2021/01/31 08:05:44;;;;;;;12.68;8.15;;;;;;;;;;5080706;28;20034;-85
2021/01/31 08:08:10;;;;;;;10.70;7.47;;;;;;;;;;5070363;28;20031;-88
2021/01/31 08:10:40;;;;;;;10.35;7.65;;;;;;;;;;5090997;28;20043;-86
2021/01/31 08:13:10;;;;;;;12.30;8.15;;;;;;;;;;5071392;28;20105;-87
2021/01/31 08:15:37;;;;;;;12.43;8.68;;;;;;;;;;5068248;28;20529;-84
2021/01/31 08:18:03;;;;;;;9.63;7.75;;;;;;;;;;5070329;28;20125;-85
2021/01/31 08:20:29;;;;;;;11.98;8.55;;;;;;;;;;5076993;28;20089;-87
2021/01/31 08:22:56;;;;;;;11.10;8.10;;;;;;;;;;5076666;28;20497;-86
2021/01/31 08:25:26;;;;;;;10.80;7.68;;;;;;;;;;5081279;28;20127;-87
2021/01/31 08:28:01;;;;;;;12.30;8.70;;;;;;;;;;5058440;28;20034;-85
2021/01/31 08:30:41;;;;;;;12.13;8.15;;;;;;;;;;5050173;28;20031;-84
2021/01/31 08:33:22;;;;;;;11.30;8.38;;;;;;;;;;5074134;28;20023;-86
2021/01/31 08:35:48;;;;;;;10.35;7.57;;;;;;;;;;5073916;28;20451;-86
2021/01/31 08:38:20;;;;;;;13.05;8.40;;;;;;;;;;5073363;28;20044;-84
2021/01/31 08:41:01;;;;;;;12.73;7.82;;;;;;;;;;5094595;28;20087;-85
2021/01/31 08:43:28;;;;;;;11.38;7.82;;;;;;;;;;5072814;28;20065;-85
2021/01/31 08:46:02;;;;;;;10.70;8.43;;;;;;;;;;5061466;28;20485;-86
2021/01/31 08:48:28;;;;;;;11.27;8.55;;;;;;;;;;5090457;28;20043;-84
2021/01/31 08:51:13;;;;;;;10.95;8.25;;;;;;;;;;5080741;28;20024;-84
2021/01/31 08:53:39;;;;;;;12.82;8.82;;;;;;;;;;5079826;28;20031;-83
2021/01/31 08:56:24;;;;;;;12.68;8.90;;;;;;;;;;5066384;28;20131;-85
2021/01/31 08:58:50;;;;;;;11.13;8.05;;;;;;;;;;5000538;28;20114;-85
2021/01/31 09:01:17;;;;;;;11.60;8.80;;;;;;;;;;5076717;28;20394;-84
2021/01/31 09:03:44;;;;;;;10.82;8.43;;;;;;;;;;5075866;28;20031;-85
2021/01/31 09:06:11;;;;;;;11.50;8.48;;;;;;;;;;5077895;28;20028;-84
2021/01/31 09:08:38;;;;;;;15.07;9.73;;;;;;;;;;5098151;28;20059;-85
2021/01/31 09:11:10;;;;;;;13.45;7.93;;;;;;;;;;5077391;28;20032;-84
2021/01/31 09:13:38;;;;;;;12.20;8.80;;;;;;;;;;5073948;28;20043;-85
2021/01/31 09:16:13;;;;;;;12.02;8.40;;;;;;;;;;5077120;28;20111;-86
2021/01/31 09:18:40;;;;;;;10.32;7.97;;;;;;;;;;5077208;28;20104;-85
2021/01/31 09:21:27;;;;;;;12.10;8.18;;;;;;;;;;5076407;28;20015;-85
2021/01/31 09:23:56;;;;;;;10.63;7.82;;;;;;;;;;5060651;28;20137;-85
2021/01/31 09:26:22;;;;;;;12.50;8.10;;;;;;;;;;5059425;28;20034;-86
2021/01/31 09:28:48;;;;;;;10.07;8.38;;;;;;;;;;5046761;28;20348;-85
2021/01/31 09:31:15;;;;;;;11.55;7.90;;;;;;;;;;5075417;28;20143;-84
2021/01/31 09:33:43;;;;;;;13.10;9.43;;;;;;;;;;5059549;28;20361;-85
2021/01/31 09:36:16;;;;;;;13.98;9.55;;;;;;;;;;5045732;28;20030;-86
2021/01/31 09:38:42;;;;;;;10.82;8.48;;;;;;;;;;5050922;28;20363;-84
2021/01/31 09:41:09;;;;;;;10.63;8.20;;;;;;;;;;5076289;28;20038;-86
2021/01/31 09:43:35;;;;;;;10.98;8.23;;;;;;;;;;5078344;28;21532;-85
2021/01/31 09:46:03;;;;;;;12.57;8.77;;;;;;;;;;5049534;28;20030;-83
2021/01/31 09:48:33;;;;;;;10.68;8.57;;;;;;;;;;5071905;28;20048;-84
2021/01/31 09:51:01;;;;;;;11.73;9.10;;;;;;;;;;5068300;28;20331;-84
2021/01/31 09:53:27;;;;;;;12.10;8.77;;;;;;;;;;5095491;28;20032;-85
2021/01/31 09:55:53;;;;;;;11.43;8.35;;;;;;;;;;5081659;28;20209;-83
2021/01/31 09:58:21;;;;;;;12.23;8.88;;;;;;;;;;5079023;28;20036;-86
2021/01/31 10:00:48;;;;;;;10.38;8.20;;;;;;;;;;5090939;28;20032;-86
2021/01/31 10:03:34;;;;;;;11.63;8.40;;;;;;;;;;5094933;28;20053;-84
2021/01/31 10:06:04;;;;;;;10.80;8.23;;;;;;;;;;5076653;28;20044;-87
2021/01/31 10:08:30;;;;;;;11.35;8.60;;;;;;;;;;5082756;28;20352;-85
2021/01/31 10:10:57;;;;;;;11.38;8.25;;;;;;;;;;5071089;28;20433;-86
2021/01/31 10:13:28;;;;;;;11.93;9.07;;;;;;;;;;5064675;28;20328;-84
2021/01/31 10:15:56;;;;;;;11.88;9.05;;;;;;;;;;5089451;28;20027;-85
2021/01/31 10:18:31;;;;;;;10.45;8.98;;;;;;;;;;5097730;28;20036;-88
2021/01/31 10:21:27;;;;;;;13.43;8.95;;;;;;;;;;5076666;28;20373;-85
2021/01/31 10:24:01;;;;;;;10.30;7.72;;;;;;;;;;5061322;28;20052;-84
2021/01/31 10:26:28;;;;;;;11.10;8.82;;;;;;;;;;5081445;28;20032;-84
2021/01/31 10:28:59;;;;;;;13.18;8.93;;;;;;;;;;5062788;28;20028;-85
2021/01/31 10:31:30;;;;;;;11.68;8.30;;;;;;;;;;5065007;28;20344;-86
2021/01/31 10:33:56;;;;;;;13.60;8.82;;;;;;;;;;5071789;28;20024;-84
2021/01/31 10:36:25;;;;;;;11.73;8.48;;;;;;;;;;5078378;28;20032;-85
2021/01/31 10:38:52;;;;;;;9.55;7.70;;;;;;;;;;5065084;28;20028;-84
2021/01/31 10:41:18;;;;;;;11.38;8.43;;;;;;;;;;5085080;28;20036;-84
2021/01/31 10:43:44;;;;;;;12.07;8.57;;;;;;;;;;5070213;28;20029;-85
2021/01/31 10:46:11;;;;;;;9.98;8.23;;;;;;;;;;5086019;28;20291;-86
2021/01/31 10:48:37;;;;;;;9.73;7.85;;;;;;;;;;5092545;28;20039;-85
2021/01/31 10:51:03;;;;;;;10.60;8.82;;;;;;;;;;5064022;28;20028;-85
2021/01/31 10:53:33;;;;;;;11.43;8.50;;;;;;;;;;5062755;28;20032;-83
2021/01/31 10:55:59;;;;;;;10.23;8.60;;;;;;;;;;5068268;28;20059;-86
2021/01/31 10:58:26;;;;;;;10.00;7.82;;;;;;;;;;5085380;28;20126;-83
2021/01/31 11:00:53;;;;;;;10.38;8.15;;;;;;;;;;5075892;28;20032;-82
2021/01/31 11:03:19;;;;;;;12.02;7.95;;;;;;;;;;5091596;28;20036;-84
2021/01/31 11:05:45;;;;;;;11.00;8.18;;;;;;;;;;5075568;28;20364;-82
2021/01/31 11:08:11;;;;;;;11.60;8.88;;;;;;;;;;5066243;28;20039;-85
2021/01/31 11:10:38;;;;;;;12.13;9.18;;;;;;;;;;5075194;28;20096;-84
2021/01/31 11:13:06;;;;;;;9.95;8.80;;;;;;;;;;5083094;28;20024;-84
2021/01/31 11:15:32;;;;;;;10.25;8.07;;;;;;;;;;5078479;28;20077;-84
2021/01/31 11:17:58;;;;;;;10.63;7.03;;;;;;;;;;5079568;28;20036;-83
2021/01/31 11:20:24;;;;;;;10.30;7.78;;;;;;;;;;5085583;28;20103;-85
2021/01/31 11:22:50;;;;;;;10.90;7.60;;;;;;;;;;5067092;28;20110;-85
2021/01/31 11:25:17;;;;;;;9.65;7.75;;;;;;;;;;5088271;28;20338;-84
2021/01/31 11:27:43;;;;;;;11.98;8.20;;;;;;;;;;5090780;28;20024;-84
2021/01/31 11:30:09;;;;;;;8.65;7.10;;;;;;;;;;5059155;28;20067;-85
2021/01/31 11:32:35;;;;;;;8.90;7.57;;;;;;;;;;5047377;28;20028;-83
2021/01/31 11:35:02;;;;;;;10.32;8.10;;;;;;;;;;5094862;28;20418;-85
2021/01/31 11:37:28;;;;;;;9.43;6.97;;;;;;;;;;5081216;28;20032;-86
2021/01/31 11:39:54;;;;;;;8.82;7.25;;;;;;;;;;5092071;28;20347;-85
2021/01/31 11:42:20;;;;;;;12.18;8.45;;;;;;;;;;5092197;28;20036;-84
2021/01/31 11:44:47;;;;;;;9.30;7.57;;;;;;;;;;5082420;28;20051;-84
2021/01/31 11:47:13;;;;;;;12.05;7.65;;;;;;;;;;5096887;28;20040;-83
2021/01/31 11:49:40;;;;;;;9.13;7.15;;;;;;;;;;5100149;28;20024;-84
2021/01/31 11:52:07;;;;;;;8.68;7.45;;;;;;;;;;5081135;28;20020;-83
2021/01/31 11:54:33;;;;;;;8.50;7.10;;;;;;;;;;5082531;28;20116;-84
2021/01/31 11:56:59;;;;;;;8.23;7.05;;;;;;;;;;5084917;28;20146;-83
2021/01/31 11:59:26;;;;;;;8.77;7.55;;;;;;;;;;5079693;28;20046;-85
2021/01/31 12:01:52;;;;;;;9.27;6.90;;;;;;;;;;5090587;28;20021;-84
2021/01/31 12:04:18;;;;;;;9.88;7.13;;;;;;;;;;5095139;28;20054;-85
2021/01/31 12:06:44;;;;;;;9.32;7.60;;;;;;;;;;5092759;28;20363;-84
2021/01/31 12:09:10;;;;;;;8.35;7.10;;;;;;;;;;5074399;28;20036;-86
2021/01/31 12:11:36;;;;;;;8.43;6.93;;;;;;;;;;5014278;28;20026;-86
2021/01/31 12:14:02;;;;;;;8.60;6.90;;;;;;;;;;5046195;28;20034;-84
2021/01/31 12:16:29;;;;;;;8.00;5.85;;;;;;;;;;5039108;28;20034;-86
2021/01/31 12:18:55;;;;;;;8.20;6.82;;;;;;;;;;5090614;28;20111;-84
2021/01/31 12:21:23;;;;;;;7.95;6.70;;;;;;;;;;5079728;28;20160;-85
2021/01/31 12:23:49;;;;;;;9.15;7.03;;;;;;;;;;5067536;28;20056;-85
2021/01/31 12:26:15;;;;;;;8.45;6.32;;;;;;;;;;5097899;28;20020;-84
2021/01/31 12:28:42;;;;;;;8.13;6.35;;;;;;;;;;5072188;28;20028;-85
2021/01/31 12:31:08;;;;;;;7.68;6.68;;;;;;;;;;5078935;28;20101;-86
2021/01/31 12:33:34;;;;;;;7.47;6.50;;;;;;;;;;5082625;28;20040;-86
2021/01/31 12:36:01;;;;;;;6.43;5.80;;;;;;;;;;5074216;28;20038;-84
2021/01/31 12:38:28;;;;;;;7.55;6.82;;;;;;;;;;5084347;28;20083;-83
2021/01/31 12:40:55;;;;;;;8.52;7.13;;;;;;;;;;5073660;28;20028;-85
2021/01/31 12:43:21;;;;;;;7.50;5.68;;;;;;;;;;5072560;28;20043;-85
2021/01/31 12:45:48;;;;;;;7.32;6.55;;;;;;;;;;5007182;28;20031;-87
2021/01/31 12:48:14;;;;;;;6.28;5.60;;;;;;;;;;5074781;28;20032;-83
2021/01/31 12:50:40;;;;;;;5.93;5.07;;;;;;;;;;4997726;28;21045;-85
2021/01/31 12:53:07;;;;;;;8.52;5.72;;;;;;;;;;5075038;28;20124;-84
2021/01/31 12:55:33;;;;;;;7.47;6.28;;;;;;;;;;5036536;28;20350;-84
2021/01/31 12:57:59;;;;;;;7.80;5.72;;;;;;;;;;5079970;28;20031;-84
2021/01/31 13:00:25;;;;;;;7.20;5.97;;;;;;;;;;5093897;28;20119;-85
2021/01/31 13:02:51;;;;;;;6.75;5.53;;;;;;;;;;5096642;28;20016;-85
2021/01/31 13:05:20;;;;;;;7.10;5.50;;;;;;;;;;5074069;28;20101;-83
2021/01/31 13:07:49;;;;;;;5.93;5.22;;;;;;;;;;5074407;28;20035;-87
2021/01/31 13:10:15;;;;;;;5.80;4.93;;;;;;;;;;5073879;28;20036;-84
2021/01/31 13:12:41;;;;;;;6.93;5.68;;;;;;;;;;5077496;28;20024;-89
2021/01/31 13:15:08;;;;;;;5.90;5.03;;;;;;;;;;5086045;28;20032;-84
2021/01/31 13:17:35;;;;;;;6.55;5.35;;;;;;;;;;5063660;28;20081;-86
2021/01/31 13:20:02;;;;;;;6.45;4.95;;;;;;;;;;5057910;28;20410;-85
2021/01/31 13:22:28;;;;;;;5.97;4.70;;;;;;;;;;5027869;28;20016;-84
2021/01/31 13:24:56;;;;;;;8.23;5.05;;;;;;;;;;5074241;28;20016;-83
2021/01/31 13:27:22;;;;;;;5.70;5.10;;;;;;;;;;5091887;28;20028;-84
2021/01/31 13:29:49;;;;;;;6.97;5.50;;;;;;;;;;5094401;28;20016;-84
2021/01/31 13:32:16;;;;;;;5.05;4.40;;;;;;;;;;5089414;28;20453;-85
2021/01/31 13:34:43;;;;;;;6.72;4.47;;;;;;;;;;5074420;28;20019;-84
2021/01/31 13:37:10;;;;;;;7.75;5.13;;;;;;;;;;5032683;28;20040;-84
2021/01/31 13:39:38;;;;;;;4.78;4.28;;;;;;;;;;5009993;28;20032;-84
2021/01/31 13:42:04;;;;;;;5.30;4.80;;;;;;;;;;5072165;28;20032;-85
2021/01/31 13:44:32;;;;;;;5.63;4.45;;;;;;;;;;5075740;28;20035;-83
2021/01/31 13:46:58;;;;;;;4.50;4.10;;;;;;;;;;5079728;28;20035;-84
2021/01/31 13:49:24;;;;;;;4.68;4.20;;;;;;;;;;5076931;28;20032;-85
2021/01/31 13:51:50;;;;;;;6.53;5.03;;;;;;;;;;5078164;28;20031;-84
2021/01/31 13:54:17;;;;;;;6.32;4.68;;;;;;;;;;5077541;28;20036;-87
2021/01/31 13:56:43;;;;;;;6.07;4.28;;;;;;;;;;5072111;28;20423;-85
2021/01/31 13:59:10;;;;;;;4.70;4.13;;;;;;;;;;5092089;28;20093;-85
2021/01/31 14:01:36;;;;;;;6.22;4.53;;;;;;;;;;5086001;28;20090;-84
2021/01/31 14:04:03;;;;;;;5.68;4.18;;;;;;;;;;5086980;28;20026;-86
2021/01/31 14:06:29;;;;;;;4.82;3.72;;;;;;;;;;5074008;28;20356;-86
2021/01/31 14:08:56;;;;;;;5.82;4.93;;;;;;;;;;5079648;28;20035;-85
2021/01/31 14:11:22;;;;;;;7.68;5.38;;;;;;;;;;5093503;28;20032;-85
2021/01/31 14:13:48;;;;;;;6.90;4.63;;;;;;;;;;5074492;28;20081;-84
2021/01/31 14:16:14;;;;;;;5.47;4.22;;;;;;;;;;5072322;28;20020;-85
2021/01/31 14:18:41;;;;;;;5.53;4.32;;;;;;;;;;5082465;28;20044;-85
2021/01/31 14:21:07;;;;;;;5.60;4.57;;;;;;;;;;5049000;28;20461;-85
2021/01/31 14:23:33;;;;;;;4.30;3.70;;;;;;;;;;5055455;28;20038;-86
2021/01/31 14:26:00;;;;;;;5.32;4.28;;;;;;;;;;5048437;28;20028;-85
2021/01/31 14:28:26;;;;;;;6.50;5.40;;;;;;;;;;5039369;28;20030;-84
2021/01/31 14:30:52;;;;;;;7.72;4.60;;;;;;;;;;5033536;28;20028;-86
2021/01/31 14:33:18;;;;;;;5.97;4.55;;;;;;;;;;5056267;28;20119;-83
2021/01/31 14:35:45;;;;;;;6.00;4.22;;;;;;;;;;5082460;28;20027;-84
2021/01/31 14:38:11;;;;;;;5.65;4.53;;;;;;;;;;5097000;28;20039;-86
2021/01/31 14:40:37;;;;;;;6.35;4.85;;;;;;;;;;5080965;28;20035;-84
2021/01/31 14:43:04;;;;;;;5.32;4.28;;;;;;;;;;5079831;28;20031;-85
2021/01/31 14:45:32;;;;;;;6.60;5.15;;;;;;;;;;5078387;28;20130;-84